• Join FlightAware (Why Join?)
  • Login
  • US Flag 
11:08AM EDT


 

Airport Tracker/Info


-or-


 

Live Flight TrackerFlight Track Log ✈ FLG3733 ✈ 24-Oct-2013 ✈ KDTW - KALB

Flight Track Log - Related Links

Times and Time Zones

All times are in EDT time to prevent confusion due to time zone crossing. See the FLG3733 flight status page for this flight to view local times or setup timezone preferences in your user account.

Time Position Orientation Groundspeed Altitude Reporting Facility
EDT Latitude Longitude Course Direction KTS MPH feet Rate Location/Type
02:19PM 42.2028 -83.3553 176° South 164 189 1,500  Level Cleveland Center
02:21PM 42.1300 -83.3481 176° South 213 245 5,200 2,580 Climbing Cleveland Center
02:21PM 42.1283 -83.3467 148° Southeast 212 244 5,300 2,340 Climbing Cleveland Center
02:22PM 42.0647 -83.3247 166° South 293 337 7,600 2,280 Climbing Cleveland Center
02:22PM 42.0617 -83.3203 133° Southeast 253 291 7,700 2,040 Climbing Cleveland Center
02:23PM 42.0694 -83.1992 85° East 304 350 10,000 1,500 Climbing Cleveland Center
02:24PM 42.1175 -83.0808 61° Northeast 364 419 10,800 1,500 Climbing Cleveland Center
02:25PM 42.1675 -82.9586 61° Northeast 375 432 13,100 2,040 Climbing Cleveland Center
02:26PM 42.2156 -82.8367 62° Northeast 374 430 15,100 2,100 Climbing Cleveland Center
02:27PM 42.2742 -82.6892 62° Northeast 374 430 17,500 1,740 Climbing Cleveland Center
02:28PM 42.3228 -82.5639 62° Northeast 377 434 18,800 1,200 Climbing Cleveland Center
02:29PM 42.3647 -82.4275 67° East 397 457 20,000 1,140 Climbing Cleveland Center
02:30PM 42.3589 -82.2742 93° East 409 471 21,200 1,080 Climbing Cleveland Center
02:31PM 42.3533 -82.1164 93° East 415 478 22,300 840 Climbing Cleveland Center
02:32PM 42.3472 -81.9531 93° East 427 491 23,000 720 Climbing Cleveland Center
02:33PM 42.3383 -81.7578 93° East 439 505 23,800 720 Climbing Cleveland Center
02:34PM 42.3300 -81.5883 94° East 446 513 24,500 660 Climbing Cleveland Center
02:35PM 42.3219 -81.4194 94° East 445 512 25,200 540 Climbing Cleveland Center
02:36PM 42.3136 -81.2458 94° East 454 522 25,700 480 Climbing Cleveland Center
02:37PM 42.3042 -81.0719 94° East 459 528 26,200 480 Climbing Cleveland Center
02:38PM 42.2950 -80.8981 94° East 460 529 26,800 360 Climbing Cleveland Center
02:39PM 42.3064 -80.7244 85° East 458 527 27,000 60 Climbing Cleveland Center
02:40PM 42.3228 -80.5492 83° East 464 534 27,000  Level Cleveland Center
02:41PM 42.3428 -80.3419 82° East 470 541 27,000  Level Cleveland Center
02:42PM 42.3583 -80.1636 83° East 471 542 27,000  Level Cleveland Center
02:43PM 42.3742 -79.9883 83° East 470 541 27,000  Level Cleveland Center
02:45PM 42.3892 -79.8153 83° East 467 537 27,000  Level Cleveland Center
02:46PM 42.4042 -79.6394 83° East 470 541 27,000  Level Cleveland Center
02:47PM 42.4183 -79.4667 84° East 466 536 27,000  Level Cleveland Center
02:48PM 42.4364 -79.2553 83° East 471 542 27,000  Level Cleveland Center
02:49PM 42.4497 -79.0800 84° East 469 540 27,000  Level Cleveland Center
02:50PM 42.4642 -78.9017 84° East 472 543 27,000  Level Cleveland Center
02:51PM 42.4775 -78.7261 84° East 472 543 27,000  Level Cleveland Center
02:52PM 42.4908 -78.5492 84° East 473 544 27,000  Level Cleveland Center
02:53PM 42.5050 -78.3736 84° East 472 543 27,000  Level Cleveland Center
02:54PM 42.5206 -78.1608 84° East 475 547 27,000  Level Cleveland Center
02:55PM 42.5333 -77.9847 84° East 473 544 27,000  Level Cleveland Center
02:56PM 42.5450 -77.8086 85° East 473 544 27,000  Level Cleveland Center
02:57PM 42.5578 -77.6356 84° East 479 551 27,000  Level Cleveland Center
02:58PM 42.5714 -77.4319 85° East 470 541 27,000  Level Cleveland Center
02:59PM 42.5828 -77.2525 85° East 479 551 27,000  Level Cleveland Center
03:00PM 42.5936 -77.0733 85° East 480 552 27,000  Level Cleveland Center
03:01PM 42.6044 -76.8936 85° East 479 551 27,000  Level Cleveland Center
03:02PM 42.6156 -76.7142 85° East 479 551 27,000  Level Cleveland Center
03:03PM 42.6283 -76.5000 85° East 477 549 27,000  Level Cleveland Center
03:04PM 42.6381 -76.3119 86° East 477 549 27,000  Level Cleveland Center
03:05PM 42.6489 -76.1328 85° East 478 550 27,000 -540 Level Cleveland Center
03:06PM 42.6581 -75.9525 86° East 482 555 25,900 -1,440 Descending Cleveland Center
03:07PM 42.6658 -75.7667 87° East 494 568 24,100 -1,800 Descending Cleveland Center
03:08PM 42.6756 -75.5889 86° East 480 552 22,300 -1,980 Descending Cleveland Center
03:09PM 42.6864 -75.3864 86° East 454 522 20,100 -1,980 Descending Cleveland Center
03:10PM 42.6925 -75.2200 87° East 448 516 18,300 -1,800 Descending Cleveland Center
03:11PM 42.7006 -75.0589 86° East 436 502 16,500 -1,800 Descending Cleveland Center
03:13PM 42.7061 -74.8667 88° East 428 493 14,300 -1,920 Descending Boston Center
03:14PM 42.6764 -74.7047 104° East 403 464 12,300 -1,980 Descending Boston Center
03:14PM 42.6767 -74.6908 88° East 412 474 12,200 -1,200 Descending Boston Center
03:15PM 42.6503 -74.5436 104° East 403 464 11,000 -900 Descending Boston Center
03:16PM 42.6261 -74.4158 104° East 380 437 10,500 -600 Descending Boston Center
03:16PM 42.6253 -74.4036 95° East 387 445 10,400 -1,500 Descending Boston Center
03:17PM 42.6167 -74.2961 96° East 302 348 9,000 -1,740 Descending Boston Center
03:17PM 42.6161 -74.2772 92° East 318 366 8,600 -2,820 Descending Boston Center
03:18PM 42.6219 -74.1872 85° East 286 329 6,200 -2,820 Descending Boston Center
03:18PM 42.6244 -74.1669 80° East 295 339 5,800 -1,140 Descending Boston Center
03:19PM 42.6297 -74.0764 85° East 288 331 5,000 -1,020 Descending Boston Center
03:19PM 42.6317 -74.0592 81° East 290 334 4,800 -1,020 Descending Boston Center
03:20PM 42.6386 -73.9717 84° East 279 321 4,000 -840 Descending Boston Center
03:20PM 42.6397 -73.9556 85° East 280 322 4,000 -480 Level Boston Center
03:21PM 42.6447 -73.8806 85° East 210 242 3,600 -480 Descending Boston Center
03:21PM 42.6483 -73.8675 69° East 219 252 3,500 -600 Descending Boston Center
03:22PM 42.6622 -73.8081 72° East 193 222 3,000 -720 Descending Boston Center
03:22PM 42.6658 -73.7967 67° East 198 228 2,800 -900 Descending Boston Center
03:23PM 42.6819 -73.7478 66° East 171 197 2,100 -1,020 Descending Boston Center
03:23PM 42.6939 -73.7417 21° North 173 199 1,800 -600 Descending Boston Center
03:24PM 42.7253 -73.7217 25° Northeast 164 189 1,500 -480 Descending Boston Center
03:24PM 42.7356 -73.7203 North 163 188 1,300 -600 Descending Boston Center
03:25PM 42.7492 -73.7558 298° West 129 148 900 -540 Descending Boston Center
03:25PM 42.7508 -73.7628 288° West 133 153 800 -540 Descending Boston Center
03:26PM 42.7489 -73.8069 267° West 106 122 300 -300 Descending Boston Center
03:27PM 42.7469 -73.8108 236° Southwest 27 31 300  Level Boston Center